Time;durP1;ratioP1;P1;durP2;ratioP2;P2;SDS_P1;SDS_P2;PMS_P1;PMS_P2;Temp;Humidity;BMP_temperature;BMP_pressure;BME280_temperature;BME280_humidity;BME280_pressure;Samples;Min_cycle;Max_cycle;Signal;HPM_P1;HPM_P2
2022/03/28 00:00:38;;;;;;;78.72;7.43;;;5.80;99.90;;;;;;4984375;28;20030;-64
2022/03/28 00:03:05;;;;;;;29.75;6.35;;;5.60;99.90;;;;;;4966409;28;20069;-65
2022/03/28 00:05:32;;;;;;;40.25;6.28;;;5.80;99.90;;;;;;4984473;28;20098;-63
2022/03/28 00:07:58;;;;;;;58.33;5.90;;;;;;;;;;4984755;28;20037;-63
2022/03/28 00:10:24;;;;;;;51.38;6.30;;;6.00;99.90;;;;;;4984006;28;20081;-63
2022/03/28 00:12:50;;;;;;;84.15;7.18;;;6.10;99.90;;;;;;4984497;28;20038;-64
2022/03/28 00:15:16;;;;;;;51.97;7.07;;;5.60;99.90;;;;;;4984305;28;20221;-66
2022/03/28 00:17:44;;;;;;;44.22;7.20;;;5.70;99.90;;;;;;4983859;28;20069;-64
2022/03/28 00:20:11;;;;;;;62.83;7.38;;;5.80;99.90;;;;;;4984121;28;20081;-64
2022/03/28 00:22:42;;;;;;;168.85;8.30;;;5.80;99.90;;;;;;4984334;28;20039;-65
2022/03/28 00:25:09;;;;;;;135.07;6.95;;;5.70;99.90;;;;;;4966884;28;20067;-66
2022/03/28 00:27:34;;;;;;;140.93;7.82;;;5.90;99.90;;;;;;4984080;28;20038;-65
2022/03/28 00:30:00;;;;;;;113.75;6.97;;;5.70;99.90;;;;;;4984307;28;20030;-64
2022/03/28 00:32:26;;;;;;;64.63;7.03;;;5.70;99.90;;;;;;4983443;28;20372;-66
2022/03/28 00:34:53;;;;;;;150.18;9.23;;;;;;;;;;4984388;28;20216;-64
2022/03/28 00:37:19;;;;;;;146.18;7.55;;;;;;;;;;4983714;28;20213;-65
2022/03/28 00:39:45;;;;;;;90.18;7.65;;;6.00;99.90;;;;;;4983276;28;20208;-65
2022/03/28 00:42:11;;;;;;;116.97;10.35;;;5.90;99.90;;;;;;4982810;28;20035;-66
2022/03/28 00:44:37;;;;;;;93.65;8.30;;;;;;;;;;4984204;28;20043;-63
2022/03/28 00:47:03;;;;;;;78.57;7.53;;;;;;;;;;4983056;28;20039;-63
2022/03/28 00:49:29;;;;;;;65.03;7.32;;;5.80;99.90;;;;;;4984146;28;20042;-64
2022/03/28 00:51:55;;;;;;;81.82;7.63;;;5.80;99.90;;;;;;4984031;28;20231;-63
2022/03/28 00:54:21;;;;;;;71.43;7.72;;;5.80;99.90;;;;;;4983899;28;20027;-64
2022/03/28 00:56:48;;;;;;;114.45;8.23;;;5.70;99.90;;;;;;4983576;28;20035;-64
2022/03/28 00:59:15;;;;;;;122.50;8.75;;;5.80;99.90;;;;;;4966680;28;20045;-64
2022/03/28 01:01:40;;;;;;;105.93;8.35;;;5.50;99.90;;;;;;4981709;28;20030;-63
2022/03/28 01:04:07;;;;;;;177.68;9.48;;;5.90;99.90;;;;;;4983728;28;20372;-64
2022/03/28 01:06:35;;;;;;;76.55;8.65;;;5.90;99.90;;;;;;4983501;28;20216;-64
2022/03/28 01:09:01;;;;;;;197.20;10.88;;;5.80;99.90;;;;;;4966905;28;20043;-64
2022/03/28 01:11:28;;;;;;;117.63;10.40;;;;;;;;;;4984267;28;20038;-65
2022/03/28 01:13:54;;;;;;;174.88;11.73;;;5.70;99.90;;;;;;4987023;28;20142;-63
2022/03/28 01:16:20;;;;;;;151.65;12.25;;;6.00;99.90;;;;;;4959885;29;20066;-63
2022/03/28 01:18:50;;;;;;;107.60;10.95;;;5.90;99.90;;;;;;4985380;28;20054;-63
2022/03/28 01:21:19;;;;;;;104.82;10.57;;;5.60;99.90;;;;;;4987481;28;20034;-63
2022/03/28 01:23:45;;;;;;;241.30;13.63;;;5.60;99.90;;;;;;4953955;28;20349;-63
2022/03/28 01:26:14;;;;;;;126.55;11.40;;;6.20;99.90;;;;;;4987129;28;20050;-63
2022/03/28 01:28:40;;;;;;;164.05;13.45;;;;;;;;;;4969610;28;20138;-63
2022/03/28 01:31:07;;;;;;;175.63;12.45;;;5.60;99.90;;;;;;4987011;28;20084;-63
2022/03/28 01:33:35;;;;;;;196.48;13.55;;;5.30;99.90;;;;;;4987007;28;20121;-59
2022/03/28 01:36:00;;;;;;;173.13;14.35;;;5.60;99.90;;;;;;4986986;28;20098;-59
2022/03/28 01:38:26;;;;;;;152.13;17.17;;;5.60;99.90;;;;;;4987135;28;20035;-59
2022/03/28 01:40:53;;;;;;;49.85;12.63;;;5.60;99.90;;;;;;4986995;28;20038;-59
2022/03/28 01:43:20;;;;;;;280.10;17.08;;;5.40;99.90;;;;;;4986182;28;20034;-59
2022/03/28 01:45:45;;;;;;;114.00;15.10;;;5.80;99.90;;;;;;4986442;28;20151;-59
2022/03/28 01:48:11;;;;;;;164.65;16.08;;;5.40;99.90;;;;;;4986761;28;20046;-58
2022/03/28 01:50:38;;;;;;;196.93;17.85;;;5.60;99.90;;;;;;4986592;28;20042;-59
2022/03/28 01:53:04;;;;;;;338.70;19.90;;;5.60;99.90;;;;;;4969450;28;20155;-59
2022/03/28 01:55:30;;;;;;;263.20;19.88;;;5.60;99.90;;;;;;4969565;28;20050;-59
2022/03/28 01:57:56;;;;;;;260.23;19.25;;;5.70;99.90;;;;;;4969511;28;20031;-59
2022/03/28 02:00:31;;;;;;;162.73;19.20;;;5.70;99.90;;;;;;4985631;28;20039;-58
2022/03/28 02:02:57;;;;;;;292.80;22.43;;;5.60;99.90;;;;;;4986783;28;20316;-59
2022/03/28 02:05:22;;;;;;;276.25;25.10;;;5.70;99.90;;;;;;4968911;28;20035;-59
2022/03/28 02:07:49;;;;;;;211.10;22.77;;;;;;;;;;4986419;28;20038;-59
2022/03/28 02:10:17;;;;;;;129.80;21.20;;;5.80;99.90;;;;;;4986348;28;20041;-59
2022/03/28 02:12:43;;;;;;;360.88;24.88;;;5.80;99.90;;;;;;4986007;28;20065;-59
2022/03/28 02:15:10;;;;;;;194.55;21.17;;;5.80;99.90;;;;;;4986168;28;20034;-59
2022/03/28 02:17:37;;;;;;;216.88;24.88;;;5.70;99.90;;;;;;4985950;28;20198;-58
2022/03/28 02:20:08;;;;;;;253.55;24.02;;;5.70;99.90;;;;;;4986359;28;20220;-59
2022/03/28 02:22:35;;;;;;;93.78;21.90;;;5.60;99.90;;;;;;4985957;28;20034;-59
2022/03/28 02:25:01;;;;;;;189.05;24.90;;;;;;;;;;4986071;28;20084;-59
2022/03/28 02:27:27;;;;;;;119.20;22.10;;;5.30;99.90;;;;;;4985752;28;20046;-59
2022/03/28 02:29:53;;;;;;;137.02;22.70;;;5.60;99.90;;;;;;4952624;28;20033;-59
2022/03/28 02:32:19;;;;;;;112.82;21.15;;;;;;;;;;4968297;28;20044;-59
2022/03/28 02:34:45;;;;;;;106.25;20.77;;;5.70;99.90;;;;;;4986616;28;20209;-59
2022/03/28 02:37:10;;;;;;;103.05;20.75;;;5.50;99.90;;;;;;4985593;28;20035;-59
2022/03/28 02:39:37;;;;;;;340.13;27.27;;;;;;;;;;4985801;28;20039;-58
2022/03/28 02:42:03;;;;;;;253.52;25.88;;;5.80;99.90;;;;;;4984343;28;20101;-58
2022/03/28 02:44:29;;;;;;;334.40;26.50;;;5.30;99.90;;;;;;4985889;28;20050;-59
2022/03/28 02:46:55;;;;;;;158.27;24.95;;;5.70;99.90;;;;;;4985688;28;20046;-58
2022/03/28 02:49:21;;;;;;;185.05;25.52;;;5.90;99.90;;;;;;4985233;28;20070;-59
2022/03/28 02:51:47;;;;;;;483.75;30.38;;;6.00;99.90;;;;;;4985571;28;20042;-59
2022/03/28 02:54:12;;;;;;;491.33;32.10;;;6.20;99.90;;;;;;4985869;28;20046;-59
2022/03/28 02:56:38;;;;;;;177.00;24.25;;;5.80;99.90;;;;;;4968341;28;20038;-59
2022/03/28 02:59:04;;;;;;;225.27;26.42;;;5.90;99.90;;;;;;4985413;28;20027;-59
2022/03/28 03:01:30;;;;;;;212.65;26.70;;;5.50;99.90;;;;;;4985270;28;20031;-59
2022/03/28 03:03:56;;;;;;;253.43;26.27;;;5.50;99.90;;;;;;4967837;28;20038;-59
2022/03/28 03:06:21;;;;;;;339.42;28.45;;;5.80;99.90;;;;;;4984979;28;20046;-59
2022/03/28 03:08:48;;;;;;;294.40;28.00;;;5.70;99.90;;;;;;4985757;28;20030;-59
2022/03/28 03:11:14;;;;;;;151.40;24.88;;;6.40;99.90;;;;;;4985172;28;20097;-59
2022/03/28 03:13:39;;;;;;;145.55;25.27;;;5.70;99.90;;;;;;4985145;28;20031;-59
2022/03/28 03:16:05;;;;;;;330.48;28.83;;;5.50;99.90;;;;;;4984971;28;20092;-60
2022/03/28 03:18:31;;;;;;;223.90;28.23;;;5.80;99.90;;;;;;4951231;28;20061;-59
2022/03/28 03:20:56;;;;;;;365.67;29.77;;;5.40;99.90;;;;;;4967817;28;20050;-59
2022/03/28 03:23:22;;;;;;;233.15;28.13;;;5.60;99.90;;;;;;4984718;28;20046;-59
2022/03/28 03:25:49;;;;;;;367.63;29.70;;;5.30;99.90;;;;;;4984859;28;20049;-59
2022/03/28 03:28:15;;;;;;;182.75;27.17;;;5.60;99.90;;;;;;4984908;28;20327;-59
2022/03/28 03:30:41;;;;;;;182.23;24.38;;;5.40;99.90;;;;;;4984587;28;20324;-59
2022/03/28 03:33:07;;;;;;;148.65;24.85;;;5.90;99.90;;;;;;4984102;28;20040;-59
2022/03/28 03:35:33;;;;;;;327.98;29.40;;;5.90;99.90;;;;;;4983911;28;20030;-59
2022/03/28 03:37:59;;;;;;;333.77;27.13;;;5.60;99.90;;;;;;4968085;28;20039;-60
2022/03/28 03:40:25;;;;;;;128.07;22.83;;;5.40;99.90;;;;;;4984588;28;20301;-59
2022/03/28 03:42:50;;;;;;;177.88;25.17;;;5.90;99.90;;;;;;4984592;28;20097;-60
2022/03/28 03:45:17;;;;;;;230.50;24.92;;;;;;;;;;4984656;28;20101;-60
2022/03/28 03:47:42;;;;;;;150.88;21.92;;;5.30;99.90;;;;;;4967433;28;20105;-59
2022/03/28 03:50:09;;;;;;;93.82;20.63;;;5.20;99.90;;;;;;4984166;28;20030;-60
2022/03/28 03:52:34;;;;;;;114.70;19.98;;;5.70;99.90;;;;;;4984709;28;20042;-60
2022/03/28 03:55:00;;;;;;;65.68;19.58;;;5.30;99.90;;;;;;4985061;28;20035;-60
2022/03/28 03:57:26;;;;;;;112.95;21.92;;;5.50;99.90;;;;;;4984517;28;20034;-59
2022/03/28 03:59:51;;;;;;;46.83;18.45;;;5.70;99.90;;;;;;4984564;28;20190;-59
2022/03/28 04:02:17;;;;;;;132.13;21.23;;;5.50;99.90;;;;;;4966294;28;20047;-59
2022/03/28 04:04:43;;;;;;;102.68;21.05;;;5.20;99.90;;;;;;4967271;28;20046;-59
2022/03/28 04:07:09;;;;;;;133.25;21.77;;;5.00;99.90;;;;;;4967223;28;20034;-59
2022/03/28 04:09:35;;;;;;;100.95;21.70;;;5.80;99.90;;;;;;4967080;28;20053;-59
2022/03/28 04:12:01;;;;;;;147.13;22.52;;;6.00;99.90;;;;;;4967108;28;20320;-59
2022/03/28 04:14:27;;;;;;;205.63;24.38;;;5.60;99.90;;;;;;4966178;28;20049;-59
2022/03/28 04:16:53;;;;;;;183.38;25.52;;;5.30;99.90;;;;;;4966804;28;20049;-59
2022/03/28 04:19:18;;;;;;;121.28;24.13;;;5.80;99.90;;;;;;4984135;28;20073;-59
2022/03/28 04:21:44;;;;;;;226.23;25.55;;;5.70;99.90;;;;;;4984387;28;20142;-59
2022/03/28 04:24:10;;;;;;;191.15;26.15;;;5.70;99.90;;;;;;4966831;28;20050;-59
2022/03/28 04:26:36;;;;;;;158.07;24.20;;;;;;;;;;4984122;28;20045;-59
2022/03/28 04:29:02;;;;;;;205.30;25.73;;;;;;;;;;4984243;28;20252;-60
2022/03/28 04:31:27;;;;;;;155.82;25.50;;;5.70;99.90;;;;;;4983471;28;20034;-59
2022/03/28 04:33:53;;;;;;;93.97;22.60;;;5.40;99.90;;;;;;4984009;28;20190;-59
2022/03/28 04:36:19;;;;;;;140.15;24.70;;;5.70;99.90;;;;;;4966989;28;20085;-59
2022/03/28 04:38:44;;;;;;;96.28;21.42;;;5.70;99.90;;;;;;4984409;28;20190;-59
2022/03/28 04:41:10;;;;;;;96.22;22.25;;;5.70;99.90;;;;;;4983121;28;20042;-59
2022/03/28 04:43:36;;;;;;;69.50;18.27;;;5.40;99.90;;;;;;4983966;28;20045;-59
2022/03/28 04:46:02;;;;;;;180.40;22.67;;;;;;;;;;4982496;28;20034;-59
2022/03/28 04:48:28;;;;;;;252.10;22.70;;;5.50;99.90;;;;;;4987384;28;20312;-59
2022/03/28 04:50:54;;;;;;;186.23;24.05;;;;;;;;;;4969920;28;20049;-59
2022/03/28 04:53:19;;;;;;;213.40;23.88;;;5.90;99.90;;;;;;4987961;28;20050;-59
2022/03/28 04:55:45;;;;;;;147.98;23.10;;;6.10;99.90;;;;;;4988016;28;20098;-59
2022/03/28 04:58:11;;;;;;;111.53;20.83;;;5.60;99.90;;;;;;4987656;28;20069;-59
2022/03/28 05:00:37;;;;;;;175.40;25.23;;;5.60;99.90;;;;;;4987677;28;20042;-59
2022/03/28 05:03:02;;;;;;;135.32;24.63;;;5.40;99.90;;;;;;4987472;28;20038;-59
2022/03/28 05:05:28;;;;;;;79.95;21.52;;;5.40;99.90;;;;;;4987869;28;20035;-59
2022/03/28 05:07:54;;;;;;;55.28;19.90;;;5.10;99.90;;;;;;4987747;28;20054;-59
2022/03/28 05:10:19;;;;;;;69.90;20.63;;;5.40;99.90;;;;;;4987433;28;20335;-59
2022/03/28 05:12:45;;;;;;;86.82;22.25;;;5.20;99.90;;;;;;4987439;28;20150;-59
2022/03/28 05:15:11;;;;;;;141.30;23.58;;;5.40;99.90;;;;;;4987000;28;20035;-59
2022/03/28 05:17:36;;;;;;;116.15;24.23;;;5.50;99.90;;;;;;4987210;28;20054;-59
2022/03/28 05:20:03;;;;;;;146.52;24.42;;;5.40;99.90;;;;;;4987012;28;20042;-58
2022/03/28 05:22:28;;;;;;;131.60;25.10;;;5.70;99.90;;;;;;4987623;28;20118;-59
2022/03/28 05:24:55;;;;;;;168.15;28.98;;;5.30;99.90;;;;;;4987400;28;20224;-60
2022/03/28 05:27:21;;;;;;;168.85;30.42;;;5.40;99.90;;;;;;4986957;28;20034;-59
2022/03/28 05:29:48;;;;;;;201.07;28.75;;;5.60;99.90;;;;;;4987437;28;20118;-59
2022/03/28 05:32:14;;;;;;;276.27;31.92;;;5.20;99.90;;;;;;4986173;28;20070;-59
2022/03/28 05:34:40;;;;;;;238.65;31.17;;;5.50;99.90;;;;;;4969835;28;20037;-59
2022/03/28 05:37:10;;;;;;;186.25;30.00;;;5.70;99.90;;;;;;4986899;28;20030;-59
2022/03/28 05:39:36;;;;;;;192.27;29.40;;;5.40;99.90;;;;;;4987015;28;20035;-59
2022/03/28 05:42:03;;;;;;;156.25;29.95;;;4.80;99.90;;;;;;4987278;28;20117;-59
2022/03/28 05:44:29;;;;;;;96.55;29.15;;;5.50;99.90;;;;;;4986853;28;20098;-59
2022/03/28 05:46:55;;;;;;;70.53;28.30;;;5.40;99.90;;;;;;4985570;28;20305;-59
2022/03/28 05:49:24;;;;;;;120.40;29.95;;;6.10;99.90;;;;;;4986381;28;20080;-59
2022/03/28 05:51:51;;;;;;;61.80;28.27;;;5.50;99.90;;;;;;4986674;28;20042;-59
2022/03/28 05:54:17;;;;;;;65.13;27.33;;;;;;;;;;4986152;28;20035;-59
2022/03/28 05:56:43;;;;;;;76.63;30.05;;;5.50;99.90;;;;;;4986401;28;20077;-59
2022/03/28 05:59:09;;;;;;;62.05;27.27;;;;;;;;;;4986187;28;20221;-59
2022/03/28 06:01:36;;;;;;;66.85;28.92;;;5.60;99.90;;;;;;4986344;28;20035;-60
2022/03/28 06:04:02;;;;;;;122.57;30.27;;;;;;;;;;4986564;28;20041;-59
2022/03/28 06:06:28;;;;;;;59.72;26.98;;;5.60;99.90;;;;;;4986194;28;20038;-59
2022/03/28 06:08:53;;;;;;;85.40;26.33;;;5.40;99.90;;;;;;4986348;28;20061;-59
2022/03/28 06:11:19;;;;;;;71.85;24.95;;;5.80;99.90;;;;;;4986130;28;20435;-59
2022/03/28 06:13:45;;;;;;;48.33;23.27;;;5.40;99.90;;;;;;4985503;28;20044;-59
2022/03/28 06:16:11;;;;;;;79.38;24.60;;;5.60;99.90;;;;;;4985687;28;20046;-59
2022/03/28 06:18:36;;;;;;;42.78;23.50;;;5.40;99.90;;;;;;4986498;28;20043;-59
2022/03/28 06:21:02;;;;;;;44.33;22.45;;;5.80;99.90;;;;;;4985928;28;20068;-60
2022/03/28 06:23:28;;;;;;;41.35;22.73;;;5.40;99.90;;;;;;4985892;28;20043;-60
2022/03/28 06:25:54;;;;;;;44.78;22.42;;;5.30;99.90;;;;;;4984092;28;20047;-59
2022/03/28 06:28:19;;;;;;;142.00;25.75;;;5.80;99.90;;;;;;4985537;28;20049;-59
2022/03/28 06:30:45;;;;;;;64.90;25.50;;;5.20;99.90;;;;;;4985653;28;20069;-59
2022/03/28 06:33:11;;;;;;;59.47;26.08;;;;;;;;;;4974440;28;20202;-60
2022/03/28 06:35:38;;;;;;;43.65;23.90;;;5.10;99.90;;;;;;4979313;28;20053;-59
2022/03/28 06:38:05;;;;;;;54.92;25.30;;;5.60;99.90;;;;;;4975872;28;20038;-59
2022/03/28 06:40:30;;;;;;;98.75;26.70;;;5.50;99.90;;;;;;4997446;28;20216;-59
2022/03/28 06:42:56;;;;;;;70.38;27.77;;;5.50;99.90;;;;;;4993877;28;20030;-59
2022/03/28 06:45:22;;;;;;;85.60;28.23;;;5.60;99.90;;;;;;4987997;28;20046;-59
2022/03/28 06:47:51;;;;;;;70.97;27.23;;;5.30;99.90;;;;;;4969531;28;20042;-59
2022/03/28 06:50:19;;;;;;;82.13;27.50;;;5.20;99.90;;;;;;4979645;28;20046;-60
2022/03/28 06:52:45;;;;;;;67.45;25.98;;;5.70;99.90;;;;;;4962580;29;20202;-59
2022/03/28 06:55:10;;;;;;;48.35;23.25;;;5.10;99.90;;;;;;4982324;28;20034;-59
2022/03/28 06:57:37;;;;;;;45.30;22.88;;;5.90;99.90;;;;;;4984256;28;20035;-59
2022/03/28 07:00:06;;;;;;;74.25;24.30;;;5.60;99.90;;;;;;4984986;28;20039;-59
2022/03/28 07:02:32;;;;;;;46.03;21.48;;;5.20;99.90;;;;;;4983085;28;20074;-59
2022/03/28 07:04:58;;;;;;;54.20;23.17;;;5.30;99.90;;;;;;4967566;28;20046;-59
2022/03/28 07:07:24;;;;;;;70.78;22.50;;;5.30;99.90;;;;;;4983845;28;20255;-60
2022/03/28 07:09:50;;;;;;;60.00;23.02;;;;;;;;;;4984369;28;20038;-59
2022/03/28 07:12:16;;;;;;;57.85;23.90;;;;;;;;;;4983867;28;20038;-60
2022/03/28 07:14:42;;;;;;;50.17;23.45;;;5.50;99.90;;;;;;4984769;28;20098;-59
2022/03/28 07:17:09;;;;;;;79.20;25.35;;;5.50;99.90;;;;;;4964137;28;20050;-59
2022/03/28 07:19:36;;;;;;;88.15;25.15;;;5.60;99.90;;;;;;4983102;28;20105;-60
2022/03/28 07:22:02;;;;;;;116.82;27.20;;;;;;;;;;4970007;28;20432;-59
2022/03/28 07:24:27;;;;;;;58.63;25.45;;;5.20;99.90;;;;;;4967085;28;20058;-59
2022/03/28 07:26:53;;;;;;;53.35;25.10;;;5.40;99.90;;;;;;4984171;28;20050;-59
2022/03/28 07:29:20;;;;;;;45.70;22.95;;;5.60;99.90;;;;;;4965991;28;20126;-60
2022/03/28 07:31:46;;;;;;;48.47;22.73;;;5.50;99.90;;;;;;4982663;28;20031;-59
2022/03/28 07:34:30;;;;;;;41.22;20.88;;;;;;;;;;4983189;28;20065;-59
2022/03/28 07:36:57;;;;;;;50.70;22.00;;;5.60;99.90;;;;;;4978537;28;20092;-59
2022/03/28 07:39:23;;;;;;;43.35;21.83;;;5.60;99.90;;;;;;4983562;28;20045;-59
2022/03/28 07:41:49;;;;;;;39.67;20.80;;;5.60;99.90;;;;;;4982706;28;20381;-59
2022/03/28 07:44:16;;;;;;;35.10;19.83;;;5.50;99.90;;;;;;4983699;28;20035;-60
2022/03/28 07:46:43;;;;;;;36.97;19.83;;;5.80;99.90;;;;;;4978471;28;20035;-60
2022/03/28 07:49:09;;;;;;;37.92;19.83;;;5.60;99.90;;;;;;4976321;28;20202;-59
2022/03/28 07:51:35;;;;;;;38.15;18.67;;;5.70;99.90;;;;;;4975128;28;20030;-60
2022/03/28 07:54:01;;;;;;;34.65;18.23;;;;;;;;;;4983729;28;20194;-60
2022/03/28 07:56:28;;;;;;;29.08;16.80;;;;;;;;;;4957988;28;20031;-60
2022/03/28 07:58:53;;;;;;;27.88;15.65;;;5.70;99.90;;;;;;4950248;28;20044;-59
2022/03/28 08:01:19;;;;;;;25.80;14.52;;;5.90;99.90;;;;;;4982753;28;20336;-60
2022/03/28 08:03:45;;;;;;;23.70;14.20;;;5.90;99.90;;;;;;4982699;28;20347;-60
2022/03/28 08:06:10;;;;;;;26.70;13.82;;;5.90;99.90;;;;;;4983796;28;20388;-58
2022/03/28 08:08:37;;;;;;;23.88;13.55;;;;;;;;;;4982370;28;20355;-59
2022/03/28 08:11:05;;;;;;;24.23;13.07;;;6.20;99.90;;;;;;4982918;28;20379;-59
2022/03/28 08:13:31;;;;;;;20.90;12.55;;;;;;;;;;4978912;28;20047;-59
2022/03/28 08:15:57;;;;;;;22.50;12.40;;;;;;;;;;4979249;28;20142;-59
2022/03/28 08:18:24;;;;;;;19.33;12.50;;;6.10;99.90;;;;;;4977296;28;20046;-59
2022/03/28 08:20:50;;;;;;;20.48;12.38;;;;;;;;;;4981790;28;20031;-59
2022/03/28 08:23:19;;;;;;;18.42;11.50;;;6.60;99.90;;;;;;4978117;28;20057;-59
2022/03/28 08:25:45;;;;;;;16.92;11.43;;;6.40;99.90;;;;;;4982936;28;20054;-59
2022/03/28 08:28:11;;;;;;;17.25;11.05;;;;;;;;;;4977265;28;20039;-59
2022/03/28 08:30:37;;;;;;;20.23;11.10;;;6.70;99.90;;;;;;4982369;28;20050;-58
2022/03/28 08:33:02;;;;;;;23.25;11.23;;;6.20;99.90;;;;;;4983249;28;20039;-60
2022/03/28 08:35:28;;;;;;;18.45;10.30;;;6.20;99.90;;;;;;4982834;28;20312;-60
2022/03/28 08:37:54;;;;;;;19.17;11.00;;;7.00;99.90;;;;;;4983288;28;20469;-61
2022/03/28 08:40:20;;;;;;;16.20;10.80;;;6.70;99.90;;;;;;4973831;28;20105;-62
2022/03/28 08:42:48;;;;;;;18.95;10.73;;;;;;;;;;4981961;28;20081;-61
2022/03/28 08:45:14;;;;;;;19.05;10.90;;;6.60;99.90;;;;;;4982286;28;20505;-63
2022/03/28 08:47:44;;;;;;;19.77;10.93;;;6.60;99.90;;;;;;4960828;29;20062;-63
2022/03/28 08:50:11;;;;;;;23.17;11.07;;;6.40;99.90;;;;;;4980115;28;20099;-63
2022/03/28 08:52:41;;;;;;;17.73;9.98;;;6.10;99.90;;;;;;4980425;28;20096;-63
2022/03/28 08:55:08;;;;;;;17.92;10.23;;;6.60;99.90;;;;;;4981778;28;20027;-63
2022/03/28 08:57:33;;;;;;;17.60;9.57;;;6.90;99.90;;;;;;4980346;28;20039;-63
2022/03/28 09:00:00;;;;;;;16.27;8.90;;;6.60;99.90;;;;;;4980976;28;20066;-63
2022/03/28 09:02:42;;;;;;;15.63;9.13;;;6.70;99.90;;;;;;4981003;28;20049;-63
2022/03/28 09:05:09;;;;;;;14.18;9.07;;;6.70;99.90;;;;;;4960135;28;20047;-63
2022/03/28 09:07:35;;;;;;;14.52;9.40;;;6.60;99.90;;;;;;4982826;28;20117;-63
2022/03/28 09:10:06;;;;;;;14.52;9.00;;;7.30;99.90;;;;;;4981947;28;20348;-62
2022/03/28 09:12:33;;;;;;;16.60;8.80;;;6.60;99.90;;;;;;4982863;28;20049;-63
2022/03/28 09:15:04;;;;;;;15.50;7.97;;;6.80;99.90;;;;;;4976777;28;20097;-63
2022/03/28 09:17:31;;;;;;;12.30;8.13;;;6.70;99.90;;;;;;4964405;28;20039;-63
2022/03/28 09:20:02;;;;;;;11.50;7.75;;;7.00;99.90;;;;;;4982852;28;20371;-63
2022/03/28 09:22:30;;;;;;;12.85;8.43;;;7.20;99.90;;;;;;4964638;28;20351;-63
2022/03/28 09:25:04;;;;;;;14.32;7.55;;;7.60;99.90;;;;;;4981842;28;20162;-63
2022/03/28 09:27:32;;;;;;;11.07;7.70;;;6.80;99.90;;;;;;4982565;28;20043;-62
2022/03/28 09:30:07;;;;;;;11.20;7.43;;;7.60;99.90;;;;;;4974192;28;20082;-63
2022/03/28 09:32:35;;;;;;;11.38;7.80;;;7.30;99.90;;;;;;4982982;28;20074;-64
2022/03/28 09:35:07;;;;;;;10.32;7.43;;;7.20;99.90;;;;;;4985514;28;20027;-63
2022/03/28 09:38:05;;;;;;;26.50;8.70;;;7.80;99.90;;;;;;4985813;28;20197;-63
2022/03/28 09:40:31;;;;;;;9.93;7.32;;;;;;;;;;4982854;28;20306;-63
2022/03/28 09:42:58;;;;;;;11.38;7.40;;;7.40;99.90;;;;;;4985570;28;20250;-63
2022/03/28 09:45:27;;;;;;;15.60;7.40;;;7.40;99.90;;;;;;4939953;28;20228;-63
2022/03/28 09:48:02;;;;;;;10.00;7.00;;;7.50;99.90;;;;;;4974420;28;20425;-62
2022/03/28 09:50:31;;;;;;;11.52;7.05;;;7.60;99.90;;;;;;4981961;28;20227;-62
2022/03/28 09:52:57;;;;;;;9.75;7.00;;;;;;;;;;4980536;28;20050;-62
2022/03/28 09:55:23;;;;;;;13.75;7.53;;;;;;;;;;4962675;28;20043;-62
2022/03/28 09:57:49;;;;;;;9.48;7.18;;;;;;;;;;4963708;28;20317;-62
2022/03/28 10:00:20;;;;;;;11.05;7.32;;;7.70;99.90;;;;;;4980072;28;20334;-63
2022/03/28 10:02:47;;;;;;;12.77;7.30;;;7.70;99.90;;;;;;4979428;28;20035;-63
2022/03/28 10:05:13;;;;;;;11.18;7.05;;;7.60;99.90;;;;;;4982154;28;20110;-62
2022/03/28 10:07:39;;;;;;;11.75;7.32;;;7.80;99.90;;;;;;4981920;28;20026;-62
2022/03/28 10:10:06;;;;;;;29.20;8.00;;;8.00;99.90;;;;;;4981452;28;20038;-69
2022/03/28 10:12:33;;;;;;;14.73;7.80;;;;;;;;;;4977171;28;20322;-69
2022/03/28 10:15:00;;;;;;;12.32;7.05;;;;;;;;;;4960591;28;20041;-69
2022/03/28 10:17:31;;;;;;;10.77;7.00;;;8.10;99.90;;;;;;4979087;28;20121;-68
2022/03/28 10:19:58;;;;;;;8.80;6.75;;;8.10;99.90;;;;;;4977125;28;20042;-69
2022/03/28 10:22:32;;;;;;;11.98;6.68;;;8.30;99.90;;;;;;4960692;28;20042;-69
2022/03/28 10:25:18;;;;;;;9.50;6.80;;;8.40;99.90;;;;;;4978229;28;20050;-70
2022/03/28 10:27:44;;;;;;;10.00;7.15;;;;;;;;;;4966668;28;20046;-70
2022/03/28 10:30:22;;;;;;;9.00;6.95;;;8.50;99.90;;;;;;4964126;28;20046;-70
2022/03/28 10:33:07;;;;;;;9.35;7.00;;;9.20;99.90;;;;;;4958322;29;20051;-69
2022/03/28 10:35:33;;;;;;;8.18;7.00;;;;;;;;;;4946019;28;20271;-70
2022/03/28 10:38:16;;;;;;;8.80;6.88;;;9.50;99.90;;;;;;4976855;28;20031;-70
2022/03/28 10:40:53;;;;;;;9.20;7.07;;;9.40;99.90;;;;;;4981605;28;20034;-69
2022/03/28 10:43:19;;;;;;;10.07;6.70;;;9.10;99.90;;;;;;4971832;28;20312;-70
2022/03/28 10:46:03;;;;;;;8.70;6.88;;;9.00;99.90;;;;;;4977721;28;20066;-72
2022/03/28 10:48:35;;;;;;;11.80;7.28;;;9.10;99.90;;;;;;4979565;28;20027;-69
2022/03/28 10:51:13;;;;;;;10.27;6.90;;;9.60;99.90;;;;;;4980730;28;20057;-69
2022/03/28 10:53:41;;;;;;;10.93;7.15;;;8.70;99.90;;;;;;4980405;28;20375;-69
2022/03/28 10:56:31;;;;;;;8.25;6.63;;;9.40;99.90;;;;;;4980124;28;20244;-69
2022/03/28 10:58:59;;;;;;;10.85;7.00;;;9.50;99.90;;;;;;4963247;28;20146;-70
2022/03/28 11:01:29;;;;;;;10.35;7.32;;;9.60;99.90;;;;;;4979817;28;20097;-70
2022/03/28 11:04:08;;;;;;;11.00;7.00;;;9.30;99.90;;;;;;4981039;28;20058;-70
2022/03/28 11:07:02;;;;;;;11.15;7.03;;;9.40;99.90;;;;;;4980221;28;20035;-69
2022/03/28 11:09:51;;;;;;;8.85;6.80;;;9.70;99.90;;;;;;4973533;28;20050;-69
2022/03/28 11:12:32;;;;;;;9.27;7.15;;;9.60;99.90;;;;;;4963375;28;20241;-70
2022/03/28 11:14:58;;;;;;;10.88;6.95;;;;;;;;;;4980679;28;20095;-70
2022/03/28 11:17:36;;;;;;;9.65;7.30;;;9.80;99.90;;;;;;4979528;28;20034;-70
2022/03/28 11:20:18;;;;;;;10.40;7.25;;;8.80;99.90;;;;;;4980098;28;20042;-70
2022/03/28 11:22:50;;;;;;;11.27;7.10;;;10.40;99.90;;;;;;4980386;28;20039;-70
2022/03/28 11:25:51;;;;;;;9.77;6.88;;;11.30;99.90;;;;;;4962140;28;20248;-70
2022/03/28 11:28:23;;;;;;;9.40;7.13;;;9.90;99.90;;;;;;4978583;28;20240;-71
2022/03/28 11:30:59;;;;;;;8.68;6.93;;;10.00;99.90;;;;;;4979683;28;20105;-70
2022/03/28 11:33:32;;;;;;;10.23;7.28;;;10.10;99.90;;;;;;4979503;28;20244;-70
2022/03/28 11:35:59;;;;;;;13.98;6.78;;;9.80;99.90;;;;;;4962345;28;20093;-70
2022/03/28 11:38:31;;;;;;;9.88;7.05;;;10.10;99.90;;;;;;4978469;28;20217;-70
2022/03/28 11:40:58;;;;;;;8.85;6.80;;;10.20;99.90;;;;;;4979685;28;20066;-70
2022/03/28 11:43:29;;;;;;;11.25;6.53;;;10.20;99.90;;;;;;4979342;28;20034;-71
2022/03/28 11:45:55;;;;;;;8.35;7.15;;;;;;;;;;4980142;28;20113;-71
2022/03/28 11:48:21;;;;;;;9.13;6.72;;;10.60;99.90;;;;;;4978268;28;20277;-71
2022/03/28 11:50:47;;;;;;;13.98;7.40;;;;;;;;;;4980024;28;20046;-71
2022/03/28 11:53:15;;;;;;;9.90;7.10;;;11.00;99.90;;;;;;4979129;28;20113;-70
2022/03/28 11:55:51;;;;;;;9.02;7.25;;;11.20;99.90;;;;;;4978653;28;20046;-71
2022/03/28 11:58:19;;;;;;;8.63;6.95;;;;;;;;;;4977671;28;20030;-71
2022/03/28 12:00:48;;;;;;;10.88;7.03;;;10.90;99.90;;;;;;4963153;28;20197;-71
2022/03/28 12:03:15;;;;;;;27.52;7.53;;;11.00;99.90;;;;;;4978665;28;20089;-71
2022/03/28 12:05:43;;;;;;;11.52;7.18;;;10.90;99.90;;;;;;4978038;28;20037;-71
2022/03/28 12:08:17;;;;;;;8.60;7.03;;;11.30;99.90;;;;;;4979768;28;20339;-72
2022/03/28 12:10:53;;;;;;;9.10;6.90;;;10.90;99.90;;;;;;4979349;28;20045;-71
2022/03/28 12:13:21;;;;;;;10.07;6.97;;;11.50;99.90;;;;;;4978142;28;20046;-71
2022/03/28 12:15:49;;;;;;;10.73;7.68;;;11.00;99.90;;;;;;4979187;28;20309;-71
2022/03/28 12:18:18;;;;;;;12.40;8.25;;;11.10;99.90;;;;;;4978605;28;20041;-71
2022/03/28 12:20:53;;;;;;;11.40;7.60;;;11.30;99.90;;;;;;4979930;28;20316;-71
2022/03/28 12:23:22;;;;;;;12.07;7.30;;;11.20;99.90;;;;;;4979162;28;20034;-71
2022/03/28 12:25:49;;;;;;;12.70;7.70;;;11.30;99.90;;;;;;4979017;28;20051;-71
2022/03/28 12:28:35;;;;;;;9.93;7.85;;;11.40;99.90;;;;;;4961650;28;20042;-71
2022/03/28 12:31:03;;;;;;;9.63;7.70;;;10.90;99.90;;;;;;4979320;28;20036;-72
2022/03/28 12:33:38;;;;;;;12.20;7.88;;;11.60;99.90;;;;;;4978250;28;20045;-71
2022/03/28 12:36:13;;;;;;;8.93;7.35;;;12.10;99.90;;;;;;4978608;28;20224;-71
2022/03/28 12:38:42;;;;;;;8.93;7.70;;;11.40;99.90;;;;;;4961399;28;20062;-72
2022/03/28 12:41:13;;;;;;;9.88;7.28;;;11.60;99.90;;;;;;4978973;28;20042;-72
2022/03/28 12:43:45;;;;;;;12.35;8.00;;;12.10;99.90;;;;;;4978071;28;20039;-72
2022/03/28 12:46:11;;;;;;;12.02;8.02;;;;;;;;;;4978850;28;20038;-71
2022/03/28 12:48:37;;;;;;;12.38;8.20;;;12.10;99.90;;;;;;4978901;28;20162;-70
2022/03/28 12:51:05;;;;;;;12.52;7.78;;;12.80;99.90;;;;;;4978466;28;20039;-71
2022/03/28 12:53:32;;;;;;;10.02;8.63;;;12.60;99.90;;;;;;4961568;28;20051;-72